Time;durP1;ratioP1;P1;durP2;ratioP2;P2;SDS_P1;SDS_P2;PMS_P1;PMS_P2;Temp;Humidity;BMP_temperature;BMP_pressure;BME280_temperature;BME280_humidity;BME280_pressure;Samples;Min_cycle;Max_cycle;Signal;HPM_P1;HPM_P2
2022/05/04 00:02:22;;;;;;;13.68;9.50;;;;;;;;;;4491600;77;28524;-81
2022/05/04 00:08:23;;;;;;;15.58;8.98;;;;;;;;;;4450185;77;28477;-83
2022/05/04 00:14:25;;;;;;;11.15;7.62;;;;;;;;;;4401422;79;28499;-85
2022/05/04 00:20:26;;;;;;;13.53;9.93;;;;;;;;;;4409183;79;28493;-84
2022/05/04 00:26:27;;;;;;;15.75;10.38;;;;;;;;;;4409862;79;28505;-84
2022/05/04 00:32:28;;;;;;;12.80;9.93;;;;;;;;;;4400311;79;28505;-84
2022/05/04 00:38:29;;;;;;;13.00;9.60;;;;;;;;;;4379372;79;28502;-84
2022/05/04 00:44:30;;;;;;;14.55;9.48;;;;;;;;;;4387045;79;28505;-84
2022/05/04 00:50:31;;;;;;;13.05;8.43;;;;;;;;;;4396834;79;28458;-85
2022/05/04 00:56:31;;;;;;;11.30;8.33;;;;;;;;;;4363838;79;28530;-81
2022/05/04 01:02:32;;;;;;;12.90;9.15;;;;;;;;;;4388460;80;28515;-79
2022/05/04 01:08:33;;;;;;;14.18;9.40;;;;;;;;;;4418858;78;28571;-81
2022/05/04 01:14:34;;;;;;;16.52;10.43;;;;;;;;;;4478869;78;28529;-81
2022/05/04 01:20:35;;;;;;;12.30;9.28;;;;;;;;;;4497246;77;28539;-81
2022/05/04 01:26:36;;;;;;;13.45;8.83;;;;;;;;;;4494487;77;28588;-80
2022/05/04 01:32:37;;;;;;;14.33;8.85;;;;;;;;;;4495342;77;28562;-80
2022/05/04 01:38:38;;;;;;;13.13;8.23;;;;;;;;;;4472607;77;28531;-81
2022/05/04 01:44:40;;;;;;;11.40;9.10;;;;;;;;;;4497842;77;28483;-84
2022/05/04 01:50:40;;;;;;;14.98;9.38;;;;;;;;;;4486887;77;28510;-83
2022/05/04 01:56:41;;;;;;;15.45;10.75;;;;;;;;;;4456835;77;28475;-83
2022/05/04 02:02:42;;;;;;;15.50;10.10;;;;;;;;;;4436385;77;28500;-83
2022/05/04 02:08:45;;;;;;;15.98;9.00;;;;;;;;;;4450452;77;28512;-81
2022/05/04 02:14:46;;;;;;;11.45;8.43;;;;;;;;;;4440543;78;28494;-81
2022/05/04 02:20:47;;;;;;;13.90;10.05;;;;;;;;;;4470601;78;28506;-86
2022/05/04 02:26:47;;;;;;;18.90;10.05;;;;;;;;;;4471714;78;28545;-86
2022/05/04 02:32:48;;;;;;;14.40;8.58;;;;;;;;;;4470866;78;28531;-83
2022/05/04 02:38:49;;;;;;;13.48;8.00;;;;;;;;;;4434127;78;28499;-83
2022/05/04 02:44:50;;;;;;;15.13;9.23;;;;;;;;;;4416287;78;28482;-83
2022/05/04 02:50:51;;;;;;;14.07;9.23;;;;;;;;;;4439897;78;28513;-77
2022/05/04 02:56:52;;;;;;;12.75;8.68;;;;;;;;;;4453348;78;28502;-81
2022/05/04 03:02:54;;;;;;;11.68;6.72;;;;;;;;;;4455926;78;28627;-82
2022/05/04 03:08:55;;;;;;;14.00;8.60;;;;;;;;;;4450048;78;28536;-81
2022/05/04 03:14:56;;;;;;;12.05;8.78;;;;;;;;;;4493215;77;28491;-81
2022/05/04 03:20:57;;;;;;;13.62;8.53;;;;;;;;;;4448797;77;28533;-80
2022/05/04 03:26:58;;;;;;;11.53;7.42;;;;;;;;;;4498057;77;28573;-80
2022/05/04 03:32:59;;;;;;;12.28;7.58;;;;;;;;;;4447502;78;28515;-80
2022/05/04 03:39:00;;;;;;;11.45;7.92;;;;;;;;;;4491864;77;28531;-81
2022/05/04 03:45:00;;;;;;;13.53;8.48;;;;;;;;;;4512276;77;28480;-82
2022/05/04 03:51:02;;;;;;;14.80;8.93;;;;;;;;;;4495029;77;28519;-82
2022/05/04 03:57:03;;;;;;;12.80;8.78;;;;;;;;;;4494662;77;28483;-81
2022/05/04 04:03:04;;;;;;;13.40;9.23;;;;;;;;;;4495289;77;28501;-82
2022/05/04 04:09:05;;;;;;;12.90;7.78;;;;;;;;;;4488454;77;28553;-81
2022/05/04 04:15:06;;;;;;;15.15;7.62;;;;;;;;;;4493002;77;28563;-80
2022/05/04 04:27:27;;;;;;;14.95;8.53;;;;;;;;;;4479210;77;28491;-80
2022/05/04 04:33:29;;;;;;;13.90;8.08;;;;;;;;;;4492950;77;28545;-81
2022/05/04 04:39:29;;;;;;;14.70;8.80;;;;;;;;;;4464915;77;28515;-82
2022/05/04 04:45:30;;;;;;;12.20;7.55;;;;;;;;;;4499230;77;28483;-81
2022/05/04 04:51:31;;;;;;;11.48;7.50;;;;;;;;;;4496462;77;28490;-81
2022/05/04 04:57:33;;;;;;;12.43;7.80;;;;;;;;;;4495554;77;28558;-80
2022/05/04 05:03:34;;;;;;;11.45;7.25;;;;;;;;;;4481283;77;28515;-80
2022/05/04 05:09:35;;;;;;;12.73;7.40;;;;;;;;;;4454445;77;28565;-80
2022/05/04 05:21:56;;;;;;;12.37;8.15;;;;;;;;;;4460812;78;28524;-80
2022/05/04 05:27:57;;;;;;;12.90;7.42;;;;;;;;;;4442424;78;28758;-78
2022/05/04 05:33:58;;;;;;;14.45;7.65;;;;;;;;;;4468979;78;28499;-81
2022/05/04 05:39:59;;;;;;;12.73;8.30;;;;;;;;;;4480249;78;28554;-80
2022/05/04 05:46:00;;;;;;;13.90;8.13;;;;;;;;;;4448858;78;28527;-81
2022/05/04 05:52:01;;;;;;;12.90;8.28;;;;;;;;;;4452688;78;28483;-82
2022/05/04 05:58:02;;;;;;;16.27;8.35;;;;;;;;;;4470595;78;28555;-82
2022/05/04 06:04:03;;;;;;;12.05;7.67;;;;;;;;;;4472151;78;28519;-82
2022/05/04 06:10:05;;;;;;;12.88;7.72;;;;;;;;;;4500802;77;28479;-82
2022/05/04 06:16:06;;;;;;;12.68;7.92;;;;;;;;;;4497924;77;28542;-83
2022/05/04 06:22:06;;;;;;;12.50;8.03;;;;;;;;;;4492195;77;28529;-82
2022/05/04 06:28:08;;;;;;;13.13;8.43;;;;;;;;;;4494565;77;28523;-81
2022/05/04 06:34:11;;;;;;;14.13;8.73;;;;;;;;;;4446106;77;28510;-80
2022/05/04 06:40:11;;;;;;;10.95;8.50;;;;;;;;;;4450517;77;28516;-81
2022/05/04 06:46:13;;;;;;;12.43;7.90;;;;;;;;;;4471796;77;28598;-81
2022/05/04 06:52:14;;;;;;;15.08;8.30;;;;;;;;;;4477295;77;28522;-82
2022/05/04 06:58:15;;;;;;;14.15;8.15;;;;;;;;;;4443590;78;28466;-81
2022/05/04 07:04:16;;;;;;;11.60;7.80;;;;;;;;;;4442865;77;28509;-79
2022/05/04 07:10:17;;;;;;;11.95;7.60;;;;;;;;;;4471893;77;28509;-79
2022/05/04 07:16:18;;;;;;;13.85;7.78;;;;;;;;;;4492747;78;28527;-79
2022/05/04 07:22:21;;;;;;;12.78;7.37;;;;;;;;;;4480431;78;28534;-77
2022/05/04 07:28:22;;;;;;;10.78;7.08;;;;;;;;;;4484483;78;28494;-78
2022/05/04 07:34:23;;;;;;;10.43;6.03;;;;;;;;;;4489237;79;28464;-76
2022/05/04 07:46:43;;;;;;;7.92;5.53;;;;;;;;;;4491255;78;28533;-81
2022/05/04 07:52:46;;;;;;;9.80;5.25;;;;;;;;;;4470642;78;28515;-78
2022/05/04 07:58:47;;;;;;;9.58;5.15;;;;;;;;;;4468298;78;28578;-77
2022/05/04 08:04:49;;;;;;;6.75;4.37;;;;;;;;;;4452784;79;28518;-78
2022/05/04 08:10:50;;;;;;;4.95;3.90;;;;;;;;;;4467367;77;28529;-79
2022/05/04 08:16:51;;;;;;;6.70;4.62;;;;;;;;;;4461973;77;28463;-79
2022/05/04 08:22:52;;;;;;;7.70;4.90;;;;;;;;;;4479175;77;28523;-78
2022/05/04 08:28:54;;;;;;;6.95;4.72;;;;;;;;;;4469881;77;28561;-78
2022/05/04 08:34:57;;;;;;;8.10;4.78;;;;;;;;;;4505606;77;28480;-78
2022/05/04 08:40:59;;;;;;;7.33;4.97;;;;;;;;;;4484346;77;28445;-78
2022/05/04 08:47:02;;;;;;;8.38;5.55;;;;;;;;;;4493815;77;28535;-78
2022/05/04 08:53:04;;;;;;;10.55;5.72;;;;;;;;;;4487498;77;28922;-79
2022/05/04 08:59:06;;;;;;;10.48;6.05;;;;;;;;;;4493375;77;28593;-78
2022/05/04 09:05:13;;;;;;;9.20;5.53;;;;;;;;;;4464550;77;28540;-75
2022/05/04 09:11:19;;;;;;;7.03;5.20;;;;;;;;;;4482002;77;28506;-76
2022/05/04 09:17:21;;;;;;;9.85;5.40;;;;;;;;;;4483570;77;28518;-76
2022/05/04 09:23:28;;;;;;;9.45;5.53;;;;;;;;;;4469617;77;28523;-76
2022/05/04 09:29:35;;;;;;;7.83;4.87;;;;;;;;;;4445639;78;28496;-74
2022/05/04 09:35:36;;;;;;;9.75;5.30;;;;;;;;;;4488800;77;28527;-77
2022/05/04 09:47:56;;;;;;;8.65;5.53;;;;;;;;;;4489685;77;28592;-76
2022/05/04 09:53:58;;;;;;;11.28;5.80;;;;;;;;;;4510340;77;28799;-78
2022/05/04 10:00:00;;;;;;;10.25;6.08;;;;;;;;;;4483543;77;28926;-79
2022/05/04 10:06:01;;;;;;;10.23;7.25;;;;;;;;;;4483136;77;28498;-74
2022/05/04 10:12:03;;;;;;;8.38;5.65;;;;;;;;;;4498687;77;28553;-76
2022/05/04 10:18:11;;;;;;;10.23;5.78;;;;;;;;;;4481166;77;28522;-80
2022/05/04 10:24:13;;;;;;;7.12;5.87;;;;;;;;;;4490884;77;28550;-81
2022/05/04 10:30:33;;;;;;;10.88;5.80;;;;;;;;;;4499350;77;28475;-80
2022/05/04 10:36:34;;;;;;;7.28;5.42;;;;;;;;;;4500745;77;28534;-79
2022/05/04 10:42:44;;;;;;;7.35;5.55;;;;;;;;;;4494755;77;28558;-79
2022/05/04 10:48:56;;;;;;;7.40;5.08;;;;;;;;;;4487263;77;28528;-79
2022/05/04 10:54:57;;;;;;;6.10;4.95;;;;;;;;;;4511930;77;28464;-80
2022/05/04 11:01:08;;;;;;;8.50;5.62;;;;;;;;;;4513426;77;28512;-80
2022/05/04 11:07:09;;;;;;;7.85;5.15;;;;;;;;;;4506323;77;28545;-80
2022/05/04 11:13:10;;;;;;;9.70;5.78;;;;;;;;;;4524541;77;28518;-79
2022/05/04 11:19:12;;;;;;;8.33;5.50;;;;;;;;;;4477364;77;28715;-79
2022/05/04 11:25:13;;;;;;;8.45;5.37;;;;;;;;;;4460918;78;28491;-80
2022/05/04 11:31:16;;;;;;;6.80;4.97;;;;;;;;;;4493992;77;28476;-80
2022/05/04 11:37:17;;;;;;;8.60;5.50;;;;;;;;;;4506495;77;28485;-81
2022/05/04 11:43:21;;;;;;;8.60;5.53;;;;;;;;;;4501234;77;28503;-82
2022/05/04 11:49:23;;;;;;;7.80;5.28;;;;;;;;;;4447300;77;28493;-83
2022/05/04 11:55:24;;;;;;;8.00;4.62;;;;;;;;;;4465517;77;28517;-81
2022/05/04 12:01:25;;;;;;;6.62;5.00;;;;;;;;;;4498369;77;28535;-81
2022/05/04 12:07:27;;;;;;;8.48;5.37;;;;;;;;;;4442332;77;28579;-81
2022/05/04 12:13:28;;;;;;;6.40;4.92;;;;;;;;;;4518736;77;28499;-79
2022/05/04 12:19:30;;;;;;;5.17;4.50;;;;;;;;;;4482863;77;28491;-81
2022/05/04 12:25:31;;;;;;;6.50;4.37;;;;;;;;;;4484158;77;28538;-81
2022/05/04 12:37:35;;;;;;;6.33;4.70;;;;;;;;;;4444431;77;28725;-80
2022/05/04 12:43:37;;;;;;;7.50;5.00;;;;;;;;;;4519372;77;28559;-82
2022/05/04 12:49:40;;;;;;;7.05;4.58;;;;;;;;;;4510917;77;28568;-84
2022/05/04 13:02:00;;;;;;;6.97;4.17;;;;;;;;;;4493448;77;28526;-81
2022/05/04 13:08:01;;;;;;;4.78;4.20;;;;;;;;;;4487994;77;28604;-81
2022/05/04 13:14:03;;;;;;;5.55;4.12;;;;;;;;;;4484139;77;28556;-81
2022/05/04 13:20:05;;;;;;;6.70;3.87;;;;;;;;;;4479398;78;28498;-80
2022/05/04 13:26:08;;;;;;;5.25;4.17;;;;;;;;;;4470146;78;28550;-80
2022/05/04 13:32:09;;;;;;;5.80;4.12;;;;;;;;;;4475545;78;28539;-80
2022/05/04 13:38:10;;;;;;;8.03;3.98;;;;;;;;;;4487640;78;28553;-79
2022/05/04 13:44:11;;;;;;;6.80;3.30;;;;;;;;;;4483994;78;28507;-82
2022/05/04 13:56:31;;;;;;;7.30;3.80;;;;;;;;;;4477839;78;28461;-79
2022/05/04 14:02:33;;;;;;;7.00;4.17;;;;;;;;;;4482493;78;28617;-78
2022/05/04 14:08:34;;;;;;;6.12;3.87;;;;;;;;;;4484038;78;28491;-80
2022/05/04 14:20:56;;;;;;;7.58;3.98;;;;;;;;;;4485642;77;28551;-80
2022/05/04 14:26:57;;;;;;;5.10;4.00;;;;;;;;;;4464959;78;28612;-82
2022/05/04 15:52:35;;;;;;;5.15;3.00;;;;;;;;;;2699138;131;28711;-77
2022/05/04 15:58:35;;;;;;;4.90;3.50;;;;;;;;;;2726046;129;28773;-78
2022/05/04 16:04:36;;;;;;;8.10;3.62;;;;;;;;;;2816328;124;28596;-79
2022/05/04 16:10:37;;;;;;;6.72;3.27;;;;;;;;;;2965021;115;28557;-78
2022/05/04 16:21:40;;;;;;;8.23;3.37;;;;;;;;;;3253212;103;28549;-77
2022/05/04 16:22:41;;;;;;;5.17;3.20;;;;;;;;;;3561255;98;28617;-77
2022/05/04 16:28:42;;;;;;;3.75;3.12;;;;;;;;;;3901091;89;28496;-76
2022/05/04 16:34:43;;;;;;;3.62;2.75;;;;;;;;;;3996862;87;28523;-77
2022/05/04 16:40:44;;;;;;;4.05;3.05;;;;;;;;;;4048661;86;28542;-74
2022/05/04 16:46:45;;;;;;;3.35;3.05;;;;;;;;;;3979374;87;28590;-77
2022/05/04 16:52:48;;;;;;;4.87;3.47;;;;;;;;;;4072874;86;29012;-76
2022/05/04 16:58:49;;;;;;;5.72;3.20;;;;;;;;;;4052645;85;28483;-76
2022/05/04 17:04:50;;;;;;;4.53;3.40;;;;;;;;;;4144858;84;28572;-73
2022/05/04 17:10:51;;;;;;;6.05;3.30;;;;;;;;;;4147581;84;28514;-72
2022/05/04 17:16:53;;;;;;;4.60;2.92;;;;;;;;;;4148587;84;28553;-72
2022/05/04 17:22:54;;;;;;;5.72;3.33;;;;;;;;;;4147538;84;28596;-73
2022/05/04 17:28:55;;;;;;;5.95;3.20;;;;;;;;;;4101053;85;28589;-72
2022/05/04 17:41:15;;;;;;;5.62;3.42;;;;;;;;;;4144170;84;28585;-72
2022/05/04 17:47:18;;;;;;;4.42;2.67;;;;;;;;;;4127134;84;28558;-71
2022/05/04 17:53:18;;;;;;;6.58;3.15;;;;;;;;;;4101323;85;28507;-72
2022/05/04 17:59:19;;;;;;;9.45;4.72;;;;;;;;;;4095917;86;28573;-72
2022/05/04 18:05:20;;;;;;;8.13;4.00;;;;;;;;;;4102830;85;28534;-73
2022/05/04 18:11:21;;;;;;;7.92;4.10;;;;;;;;;;4086990;85;28543;-72
2022/05/04 18:17:22;;;;;;;7.33;3.75;;;;;;;;;;4093295;85;28535;-71
2022/05/04 18:23:23;;;;;;;6.83;4.28;;;;;;;;;;4079030;85;28518;-73
2022/05/04 18:29:24;;;;;;;4.90;3.62;;;;;;;;;;4068848;86;28522;-73
2022/05/04 18:35:26;;;;;;;6.90;4.12;;;;;;;;;;4098932;85;28566;-72
2022/05/04 18:41:27;;;;;;;7.67;4.00;;;;;;;;;;4095508;84;28510;-73
2022/05/04 18:47:28;;;;;;;4.70;4.03;;;;;;;;;;4074958;85;28570;-74
2022/05/04 18:53:31;;;;;;;7.72;3.87;;;;;;;;;;4093863;85;28570;-74
2022/05/04 18:59:33;;;;;;;10.28;3.77;;;;;;;;;;4117471;84;28562;-75
2022/05/04 19:05:34;;;;;;;7.30;4.47;;;;;;;;;;4124016;84;28579;-76
2022/05/04 19:11:35;;;;;;;9.18;4.47;;;;;;;;;;4142466;84;28561;-76
2022/05/04 19:17:37;;;;;;;8.50;3.92;;;;;;;;;;4137170;84;28604;-75
2022/05/04 19:23:39;;;;;;;7.20;3.98;;;;;;;;;;4138867;84;28608;-75
2022/05/04 19:29:40;;;;;;;7.67;4.35;;;;;;;;;;4126741;84;28530;-73
2022/05/04 19:35:41;;;;;;;6.47;4.00;;;;;;;;;;4143896;84;28569;-72
2022/05/04 19:41:44;;;;;;;7.95;3.83;;;;;;;;;;4089619;84;28522;-70
2022/05/04 19:47:45;;;;;;;7.75;4.47;;;;;;;;;;4099609;85;28534;-72
2022/05/04 19:53:46;;;;;;;8.65;4.92;;;;;;;;;;4080383;85;28548;-73
2022/05/04 19:59:51;;;;;;;9.90;5.35;;;;;;;;;;4064188;84;28515;-72
2022/05/04 20:05:51;;;;;;;9.00;5.45;;;;;;;;;;4116696;84;28589;-72
2022/05/04 20:11:52;;;;;;;9.15;5.35;;;;;;;;;;4124997;86;28564;-72
2022/05/04 20:17:53;;;;;;;9.45;5.35;;;;;;;;;;4110179;86;28516;-73
2022/05/04 20:23:54;;;;;;;13.48;6.12;;;;;;;;;;4095949;85;28590;-77
2022/05/04 20:29:55;;;;;;;8.38;5.58;;;;;;;;;;4103250;86;28568;-73
2022/05/04 20:35:56;;;;;;;10.10;5.50;;;;;;;;;;4102695;86;28603;-74
2022/05/04 20:41:57;;;;;;;9.45;5.20;;;;;;;;;;4136136;84;28591;-74
2022/05/04 20:47:59;;;;;;;7.83;4.78;;;;;;;;;;4117429;84;28584;-73
2022/05/04 20:54:00;;;;;;;8.80;4.30;;;;;;;;;;4043636;85;28594;-75
2022/05/04 21:00:01;;;;;;;7.92;4.37;;;;;;;;;;4065404;86;28539;-74
2022/05/04 21:06:02;;;;;;;6.10;4.17;;;;;;;;;;4040541;86;28488;-73
2022/05/04 21:12:04;;;;;;;7.78;4.80;;;;;;;;;;4053704;86;28535;-75
2022/05/04 21:18:05;;;;;;;19.15;4.45;;;;;;;;;;4065983;86;28626;-75
2022/05/04 21:24:06;;;;;;;7.95;4.45;;;;;;;;;;4058569;85;28607;-74
2022/05/04 21:30:09;;;;;;;8.53;4.92;;;;;;;;;;4065159;86;28539;-74
2022/05/04 21:36:10;;;;;;;9.25;5.30;;;;;;;;;;4080877;86;28548;-74
2022/05/04 21:42:11;;;;;;;9.83;5.20;;;;;;;;;;4070101;86;28551;-73
2022/05/04 21:48:13;;;;;;;7.62;5.28;;;;;;;;;;4058798;85;28611;-73
2022/05/04 21:54:14;;;;;;;9.93;4.87;;;;;;;;;;4074701;85;28526;-73
2022/05/04 22:00:20;;;;;;;9.38;5.35;;;;;;;;;;4066168;85;28546;-74
2022/05/04 22:06:21;;;;;;;10.80;5.80;;;;;;;;;;4077835;85;28582;-74
2022/05/04 22:18:41;;;;;;;10.38;5.65;;;;;;;;;;4071174;86;28671;-73
2022/05/04 22:24:42;;;;;;;8.90;5.28;;;;;;;;;;4072810;86;28562;-72
2022/05/04 22:30:43;;;;;;;9.48;5.30;;;;;;;;;;4076275;86;28545;-74
2022/05/04 22:36:46;;;;;;;11.10;5.60;;;;;;;;;;4063911;86;28564;-74
2022/05/04 22:42:48;;;;;;;9.65;5.53;;;;;;;;;;4071826;86;28533;-74
2022/05/04 22:48:49;;;;;;;8.88;5.47;;;;;;;;;;4091710;85;28547;-74
2022/05/04 22:54:50;;;;;;;10.48;5.83;;;;;;;;;;4124567;85;28484;-74
2022/05/04 23:00:50;;;;;;;8.73;5.47;;;;;;;;;;4132918;85;28514;-74
2022/05/04 23:06:51;;;;;;;10.25;5.72;;;;;;;;;;4136925;85;28696;-74
2022/05/04 23:13:06;;;;;;;9.38;5.28;;;;;;;;;;4129092;85;28582;-74
2022/05/04 23:19:06;;;;;;;9.90;5.97;;;;;;;;;;4131172;84;28578;-74
2022/05/04 23:25:07;;;;;;;7.90;5.55;;;;;;;;;;4125020;85;28507;-74
2022/05/04 23:31:08;;;;;;;9.10;6.00;;;;;;;;;;4129233;85;28929;-73
2022/05/04 23:37:28;;;;;;;10.55;6.03;;;;;;;;;;4134712;85;28501;-74
2022/05/04 23:43:28;;;;;;;9.78;6.33;;;;;;;;;;4131760;85;28522;-74
2022/05/04 23:49:29;;;;;;;9.40;5.55;;;;;;;;;;4108816;85;28527;-74
2022/05/04 23:55:30;;;;;;;10.05;6.37;;;;;;;;;;4061848;85;28564;-74
